sensor_id;sensor_type;location;lat;lon;timestamp;temperature;humidity
32446;DHT22;18899;50.748;7.102;2023-12-22T00:01:26;6.80;99.90
32446;DHT22;18899;50.748;7.102;2023-12-22T00:03:51;6.90;99.90
32446;DHT22;18899;50.748;7.102;2023-12-22T00:06:17;6.90;99.90
32446;DHT22;18899;50.748;7.102;2023-12-22T00:08:42;7.00;99.90
32446;DHT22;18899;50.748;7.102;2023-12-22T00:11:08;6.90;99.90
32446;DHT22;18899;50.748;7.102;2023-12-22T00:13:33;7.00;99.90
32446;DHT22;18899;50.748;7.102;2023-12-22T00:16:00;7.00;99.90
32446;DHT22;18899;50.748;7.102;2023-12-22T00:18:26;6.30;99.90
32446;DHT22;18899;50.748;7.102;2023-12-22T00:20:52;5.90;99.90
32446;DHT22;18899;50.748;7.102;2023-12-22T00:23:18;5.70;99.90
32446;DHT22;18899;50.748;7.102;2023-12-22T00:25:43;5.40;99.90
32446;DHT22;18899;50.748;7.102;2023-12-22T00:28:09;5.30;99.90
32446;DHT22;18899;50.748;7.102;2023-12-22T00:30:34;5.40;99.90
32446;DHT22;18899;50.748;7.102;2023-12-22T00:33:00;5.40;99.90
32446;DHT22;18899;50.748;7.102;2023-12-22T00:35:26;5.40;99.90
32446;DHT22;18899;50.748;7.102;2023-12-22T00:37:51;5.40;99.90
32446;DHT22;18899;50.748;7.102;2023-12-22T00:40:18;5.40;99.90
32446;DHT22;18899;50.748;7.102;2023-12-22T00:42:43;5.40;99.90
32446;DHT22;18899;50.748;7.102;2023-12-22T00:45:09;5.40;99.90
32446;DHT22;18899;50.748;7.102;2023-12-22T00:47:35;5.50;99.90
32446;DHT22;18899;50.748;7.102;2023-12-22T00:50:01;5.60;99.90
32446;DHT22;18899;50.748;7.102;2023-12-22T00:52:27;5.60;99.90
32446;DHT22;18899;50.748;7.102;2023-12-22T00:54:53;5.70;99.90
32446;DHT22;18899;50.748;7.102;2023-12-22T00:57:18;5.70;99.90
32446;DHT22;18899;50.748;7.102;2023-12-22T00:59:44;5.70;99.90
32446;DHT22;18899;50.748;7.102;2023-12-22T01:02:13;5.80;99.90
32446;DHT22;18899;50.748;7.102;2023-12-22T01:04:39;5.80;99.90
32446;DHT22;18899;50.748;7.102;2023-12-22T01:07:07;5.90;99.90
32446;DHT22;18899;50.748;7.102;2023-12-22T01:09:33;6.00;99.90
32446;DHT22;18899;50.748;7.102;2023-12-22T01:11:58;6.10;99.90
32446;DHT22;18899;50.748;7.102;2023-12-22T01:14:24;6.10;99.90
32446;DHT22;18899;50.748;7.102;2023-12-22T01:16:50;6.10;99.90
32446;DHT22;18899;50.748;7.102;2023-12-22T01:19:15;6.10;99.90
32446;DHT22;18899;50.748;7.102;2023-12-22T01:21:41;6.20;99.90
32446;DHT22;18899;50.748;7.102;2023-12-22T01:24:07;6.20;99.90
32446;DHT22;18899;50.748;7.102;2023-12-22T01:26:32;6.20;99.90
32446;DHT22;18899;50.748;7.102;2023-12-22T01:28:58;6.20;99.90
32446;DHT22;18899;50.748;7.102;2023-12-22T01:31:23;6.40;99.90
32446;DHT22;18899;50.748;7.102;2023-12-22T01:33:49;6.30;99.90
32446;DHT22;18899;50.748;7.102;2023-12-22T01:36:14;6.30;99.90
32446;DHT22;18899;50.748;7.102;2023-12-22T01:38:40;6.30;99.90
32446;DHT22;18899;50.748;7.102;2023-12-22T01:41:05;6.20;99.90
32446;DHT22;18899;50.748;7.102;2023-12-22T01:43:31;6.20;99.90
32446;DHT22;18899;50.748;7.102;2023-12-22T01:45:57;6.40;99.90
32446;DHT22;18899;50.748;7.102;2023-12-22T01:48:24;6.50;99.90
32446;DHT22;18899;50.748;7.102;2023-12-22T01:50:51;6.60;99.90
32446;DHT22;18899;50.748;7.102;2023-12-22T01:53:19;6.60;99.90
32446;DHT22;18899;50.748;7.102;2023-12-22T01:55:47;6.60;99.90
32446;DHT22;18899;50.748;7.102;2023-12-22T01:58:13;6.60;99.90
32446;DHT22;18899;50.748;7.102;2023-12-22T02:00:39;6.50;99.90
32446;DHT22;18899;50.748;7.102;2023-12-22T02:03:05;6.60;99.90
32446;DHT22;18899;50.748;7.102;2023-12-22T02:05:30;6.50;99.90
32446;DHT22;18899;50.748;7.102;2023-12-22T02:07:56;6.40;99.90
32446;DHT22;18899;50.748;7.102;2023-12-22T02:10:22;6.50;99.90
32446;DHT22;18899;50.748;7.102;2023-12-22T02:12:47;6.50;99.90
32446;DHT22;18899;50.748;7.102;2023-12-22T02:15:13;6.50;99.90
32446;DHT22;18899;50.748;7.102;2023-12-22T02:18:06;6.40;99.90
32446;DHT22;18899;50.748;7.102;2023-12-22T02:20:32;6.40;99.90
32446;DHT22;18899;50.748;7.102;2023-12-22T02:22:58;6.50;99.90
32446;DHT22;18899;50.748;7.102;2023-12-22T02:25:24;6.40;99.90
32446;DHT22;18899;50.748;7.102;2023-12-22T02:27:53;6.40;99.90
32446;DHT22;18899;50.748;7.102;2023-12-22T02:32:59;6.40;99.90
32446;DHT22;18899;50.748;7.102;2023-12-22T02:35:26;6.50;99.90
32446;DHT22;18899;50.748;7.102;2023-12-22T02:37:54;6.50;99.90
32446;DHT22;18899;50.748;7.102;2023-12-22T02:40:22;6.60;99.90
32446;DHT22;18899;50.748;7.102;2023-12-22T02:42:48;6.60;99.90
32446;DHT22;18899;50.748;7.102;2023-12-22T02:45:16;6.70;99.90
32446;DHT22;18899;50.748;7.102;2023-12-22T02:47:42;6.90;99.90
32446;DHT22;18899;50.748;7.102;2023-12-22T02:50:08;6.80;99.90
32446;DHT22;18899;50.748;7.102;2023-12-22T02:52:34;6.70;99.90
32446;DHT22;18899;50.748;7.102;2023-12-22T02:55:03;6.70;99.90
32446;DHT22;18899;50.748;7.102;2023-12-22T02:57:29;6.60;99.90
32446;DHT22;18899;50.748;7.102;2023-12-22T02:59:55;6.60;99.90
32446;DHT22;18899;50.748;7.102;2023-12-22T03:02:21;6.60;99.90
32446;DHT22;18899;50.748;7.102;2023-12-22T03:04:46;6.60;99.90
32446;DHT22;18899;50.748;7.102;2023-12-22T03:07:12;6.70;99.90
32446;DHT22;18899;50.748;7.102;2023-12-22T03:09:39;6.70;99.90
32446;DHT22;18899;50.748;7.102;2023-12-22T03:12:05;6.70;99.90
32446;DHT22;18899;50.748;7.102;2023-12-22T03:14:31;6.90;99.90
32446;DHT22;18899;50.748;7.102;2023-12-22T03:17:04;6.90;99.90
32446;DHT22;18899;50.748;7.102;2023-12-22T03:19:30;6.90;99.90
32446;DHT22;18899;50.748;7.102;2023-12-22T03:21:56;7.00;99.90
32446;DHT22;18899;50.748;7.102;2023-12-22T03:24:23;7.00;99.90
32446;DHT22;18899;50.748;7.102;2023-12-22T03:26:52;7.10;99.90
32446;DHT22;18899;50.748;7.102;2023-12-22T03:29:18;7.10;99.90
32446;DHT22;18899;50.748;7.102;2023-12-22T03:31:44;7.10;99.90
32446;DHT22;18899;50.748;7.102;2023-12-22T03:34:10;7.20;99.90
32446;DHT22;18899;50.748;7.102;2023-12-22T03:36:35;7.20;99.90
32446;DHT22;18899;50.748;7.102;2023-12-22T03:39:01;7.30;99.90
32446;DHT22;18899;50.748;7.102;2023-12-22T03:41:28;7.30;99.90
32446;DHT22;18899;50.748;7.102;2023-12-22T03:43:54;7.40;99.90
32446;DHT22;18899;50.748;7.102;2023-12-22T03:46:20;7.50;99.90
32446;DHT22;18899;50.748;7.102;2023-12-22T03:48:46;7.50;99.90
32446;DHT22;18899;50.748;7.102;2023-12-22T03:51:12;7.50;99.90
32446;DHT22;18899;50.748;7.102;2023-12-22T03:53:38;7.50;99.90
32446;DHT22;18899;50.748;7.102;2023-12-22T03:56:04;7.50;99.90
32446;DHT22;18899;50.748;7.102;2023-12-22T03:58:29;7.60;99.90
32446;DHT22;18899;50.748;7.102;2023-12-22T04:00:56;7.60;99.90
32446;DHT22;18899;50.748;7.102;2023-12-22T04:03:21;7.60;99.90
32446;DHT22;18899;50.748;7.102;2023-12-22T04:05:47;7.70;99.90
32446;DHT22;18899;50.748;7.102;2023-12-22T04:08:12;7.70;99.90
32446;DHT22;18899;50.748;7.102;2023-12-22T04:10:38;7.70;99.90
32446;DHT22;18899;50.748;7.102;2023-12-22T04:13:03;7.80;99.90
32446;DHT22;18899;50.748;7.102;2023-12-22T04:15:29;7.80;99.90
32446;DHT22;18899;50.748;7.102;2023-12-22T04:17:54;7.80;99.90
32446;DHT22;18899;50.748;7.102;2023-12-22T04:20:20;7.90;99.90
32446;DHT22;18899;50.748;7.102;2023-12-22T04:22:45;7.80;99.90
32446;DHT22;18899;50.748;7.102;2023-12-22T04:25:11;7.80;99.90
32446;DHT22;18899;50.748;7.102;2023-12-22T04:27:36;7.80;99.90
32446;DHT22;18899;50.748;7.102;2023-12-22T04:30:02;7.80;99.90
32446;DHT22;18899;50.748;7.102;2023-12-22T04:32:28;7.80;99.90
32446;DHT22;18899;50.748;7.102;2023-12-22T04:34:53;7.80;99.90
32446;DHT22;18899;50.748;7.102;2023-12-22T04:37:19;7.70;99.90
32446;DHT22;18899;50.748;7.102;2023-12-22T04:39:44;7.70;99.90
32446;DHT22;18899;50.748;7.102;2023-12-22T04:42:10;7.60;99.90
32446;DHT22;18899;50.748;7.102;2023-12-22T04:44:35;7.60;99.90
32446;DHT22;18899;50.748;7.102;2023-12-22T04:47:01;7.60;99.90
32446;DHT22;18899;50.748;7.102;2023-12-22T04:49:26;7.50;99.90
32446;DHT22;18899;50.748;7.102;2023-12-22T04:51:52;7.40;99.90
32446;DHT22;18899;50.748;7.102;2023-12-22T04:54:18;7.40;99.90
32446;DHT22;18899;50.748;7.102;2023-12-22T04:56:43;7.40;99.90
32446;DHT22;18899;50.748;7.102;2023-12-22T04:59:09;7.40;99.90
32446;DHT22;18899;50.748;7.102;2023-12-22T05:01:34;7.50;99.90
32446;DHT22;18899;50.748;7.102;2023-12-22T05:04:00;7.50;99.90
32446;DHT22;18899;50.748;7.102;2023-12-22T05:06:27;7.50;99.90
32446;DHT22;18899;50.748;7.102;2023-12-22T05:08:54;7.50;99.90
32446;DHT22;18899;50.748;7.102;2023-12-22T05:11:20;7.50;99.90
32446;DHT22;18899;50.748;7.102;2023-12-22T05:13:45;7.40;99.90
32446;DHT22;18899;50.748;7.102;2023-12-22T05:16:11;7.50;99.90
32446;DHT22;18899;50.748;7.102;2023-12-22T05:18:36;7.50;99.90
32446;DHT22;18899;50.748;7.102;2023-12-22T05:21:02;7.60;99.90
32446;DHT22;18899;50.748;7.102;2023-12-22T05:23:28;7.60;99.90
32446;DHT22;18899;50.748;7.102;2023-12-22T05:25:53;7.80;99.90
32446;DHT22;18899;50.748;7.102;2023-12-22T05:28:19;7.80;99.90
32446;DHT22;18899;50.748;7.102;2023-12-22T05:30:45;8.00;99.90
32446;DHT22;18899;50.748;7.102;2023-12-22T05:33:10;8.10;99.90
32446;DHT22;18899;50.748;7.102;2023-12-22T05:35:36;8.20;99.90
32446;DHT22;18899;50.748;7.102;2023-12-22T05:38:02;8.30;99.90
32446;DHT22;18899;50.748;7.102;2023-12-22T05:40:27;8.30;99.90
32446;DHT22;18899;50.748;7.102;2023-12-22T05:42:53;8.30;99.90
32446;DHT22;18899;50.748;7.102;2023-12-22T05:45:18;8.30;99.90
32446;DHT22;18899;50.748;7.102;2023-12-22T05:47:44;8.40;99.90
32446;DHT22;18899;50.748;7.102;2023-12-22T05:50:09;8.30;99.90
32446;DHT22;18899;50.748;7.102;2023-12-22T05:52:36;8.40;99.90
32446;DHT22;18899;50.748;7.102;2023-12-22T05:55:01;8.40;99.90
32446;DHT22;18899;50.748;7.102;2023-12-22T05:57:27;8.50;99.90
32446;DHT22;18899;50.748;7.102;2023-12-22T05:59:53;8.50;99.90
32446;DHT22;18899;50.748;7.102;2023-12-22T06:02:19;8.60;99.90
32446;DHT22;18899;50.748;7.102;2023-12-22T06:04:44;8.60;99.90
32446;DHT22;18899;50.748;7.102;2023-12-22T06:07:12;8.60;99.90
32446;DHT22;18899;50.748;7.102;2023-12-22T06:09:38;8.80;99.90
32446;DHT22;18899;50.748;7.102;2023-12-22T06:12:05;8.70;99.90
32446;DHT22;18899;50.748;7.102;2023-12-22T06:14:30;8.60;99.90
32446;DHT22;18899;50.748;7.102;2023-12-22T06:16:57;8.70;99.90
32446;DHT22;18899;50.748;7.102;2023-12-22T06:19:23;8.70;99.90
32446;DHT22;18899;50.748;7.102;2023-12-22T06:21:50;8.70;99.90
32446;DHT22;18899;50.748;7.102;2023-12-22T06:24:16;8.70;99.90
32446;DHT22;18899;50.748;7.102;2023-12-22T06:26:42;8.80;99.90
32446;DHT22;18899;50.748;7.102;2023-12-22T06:29:07;8.90;99.90
32446;DHT22;18899;50.748;7.102;2023-12-22T06:31:33;8.90;99.90
32446;DHT22;18899;50.748;7.102;2023-12-22T06:33:58;8.90;99.90
32446;DHT22;18899;50.748;7.102;2023-12-22T06:36:27;8.80;99.90
32446;DHT22;18899;50.748;7.102;2023-12-22T06:38:53;8.70;99.90
32446;DHT22;18899;50.748;7.102;2023-12-22T06:41:24;8.70;99.90
32446;DHT22;18899;50.748;7.102;2023-12-22T06:43:51;8.70;99.90
32446;DHT22;18899;50.748;7.102;2023-12-22T06:46:20;8.70;99.90
32446;DHT22;18899;50.748;7.102;2023-12-22T06:48:48;8.70;99.90
32446;DHT22;18899;50.748;7.102;2023-12-22T06:51:28;8.70;99.90
32446;DHT22;18899;50.748;7.102;2023-12-22T06:53:54;8.70;99.90
32446;DHT22;18899;50.748;7.102;2023-12-22T06:56:23;8.70;99.90
32446;DHT22;18899;50.748;7.102;2023-12-22T06:58:50;8.70;99.90
32446;DHT22;18899;50.748;7.102;2023-12-22T07:01:28;8.70;99.90
32446;DHT22;18899;50.748;7.102;2023-12-22T07:03:54;8.80;99.90
32446;DHT22;18899;50.748;7.102;2023-12-22T07:06:21;8.80;99.90
32446;DHT22;18899;50.748;7.102;2023-12-22T07:11:42;8.80;99.90
32446;DHT22;18899;50.748;7.102;2023-12-22T07:14:08;8.80;99.90
32446;DHT22;18899;50.748;7.102;2023-12-22T07:16:35;8.80;99.90
32446;DHT22;18899;50.748;7.102;2023-12-22T07:19:01;8.80;99.90
32446;DHT22;18899;50.748;7.102;2023-12-22T07:21:27;8.70;99.90
32446;DHT22;18899;50.748;7.102;2023-12-22T07:23:52;8.80;99.90
32446;DHT22;18899;50.748;7.102;2023-12-22T07:26:18;8.80;99.90
32446;DHT22;18899;50.748;7.102;2023-12-22T07:28:43;8.80;99.90
32446;DHT22;18899;50.748;7.102;2023-12-22T07:31:09;8.80;99.90
32446;DHT22;18899;50.748;7.102;2023-12-22T07:33:34;8.80;99.90
32446;DHT22;18899;50.748;7.102;2023-12-22T07:36:00;8.80;99.90
32446;DHT22;18899;50.748;7.102;2023-12-22T07:38:25;8.80;99.90
32446;DHT22;18899;50.748;7.102;2023-12-22T07:40:51;8.80;99.90
32446;DHT22;18899;50.748;7.102;2023-12-22T07:43:16;8.70;99.90
32446;DHT22;18899;50.748;7.102;2023-12-22T07:45:42;8.60;99.90
32446;DHT22;18899;50.748;7.102;2023-12-22T07:48:07;8.60;99.90
32446;DHT22;18899;50.748;7.102;2023-12-22T07:50:33;8.60;99.90
32446;DHT22;18899;50.748;7.102;2023-12-22T07:52:59;8.60;99.90
32446;DHT22;18899;50.748;7.102;2023-12-22T07:55:25;8.50;99.90
32446;DHT22;18899;50.748;7.102;2023-12-22T07:57:50;8.50;99.90
32446;DHT22;18899;50.748;7.102;2023-12-22T08:00:17;8.50;99.90
32446;DHT22;18899;50.748;7.102;2023-12-22T08:02:43;8.60;99.90
32446;DHT22;18899;50.748;7.102;2023-12-22T08:05:09;8.50;99.90
32446;DHT22;18899;50.748;7.102;2023-12-22T08:07:35;8.50;99.90
32446;DHT22;18899;50.748;7.102;2023-12-22T08:10:01;8.50;99.90
32446;DHT22;18899;50.748;7.102;2023-12-22T08:12:27;8.50;99.90
32446;DHT22;18899;50.748;7.102;2023-12-22T08:14:53;8.50;99.90
32446;DHT22;18899;50.748;7.102;2023-12-22T08:17:19;8.60;99.90
32446;DHT22;18899;50.748;7.102;2023-12-22T08:19:44;8.70;99.90
32446;DHT22;18899;50.748;7.102;2023-12-22T08:22:10;8.80;99.90
32446;DHT22;18899;50.748;7.102;2023-12-22T08:24:38;8.80;99.90
32446;DHT22;18899;50.748;7.102;2023-12-22T08:27:05;8.90;99.90
32446;DHT22;18899;50.748;7.102;2023-12-22T08:29:31;8.90;99.90
32446;DHT22;18899;50.748;7.102;2023-12-22T08:31:57;9.00;99.90
32446;DHT22;18899;50.748;7.102;2023-12-22T08:34:22;9.10;99.90
32446;DHT22;18899;50.748;7.102;2023-12-22T08:36:48;9.10;99.90
32446;DHT22;18899;50.748;7.102;2023-12-22T08:39:13;9.20;99.90
32446;DHT22;18899;50.748;7.102;2023-12-22T08:41:39;9.20;99.90
32446;DHT22;18899;50.748;7.102;2023-12-22T08:44:05;9.30;99.90
32446;DHT22;18899;50.748;7.102;2023-12-22T08:46:31;9.40;99.90
32446;DHT22;18899;50.748;7.102;2023-12-22T08:48:57;9.40;99.90
32446;DHT22;18899;50.748;7.102;2023-12-22T08:51:23;9.50;99.90
32446;DHT22;18899;50.748;7.102;2023-12-22T08:53:48;9.60;99.90
32446;DHT22;18899;50.748;7.102;2023-12-22T08:56:15;9.60;99.90
32446;DHT22;18899;50.748;7.102;2023-12-22T08:58:42;9.60;99.90
32446;DHT22;18899;50.748;7.102;2023-12-22T09:01:13;9.70;99.90
32446;DHT22;18899;50.748;7.102;2023-12-22T09:03:39;9.80;99.90
32446;DHT22;18899;50.748;7.102;2023-12-22T09:06:09;9.80;99.90
32446;DHT22;18899;50.748;7.102;2023-12-22T09:08:34;9.90;99.90
32446;DHT22;18899;50.748;7.102;2023-12-22T09:11:00;9.90;99.90
32446;DHT22;18899;50.748;7.102;2023-12-22T09:13:25;9.90;99.90
32446;DHT22;18899;50.748;7.102;2023-12-22T09:15:51;9.90;99.90
32446;DHT22;18899;50.748;7.102;2023-12-22T09:18:16;10.00;99.90
32446;DHT22;18899;50.748;7.102;2023-12-22T09:20:42;10.10;99.90
32446;DHT22;18899;50.748;7.102;2023-12-22T09:23:07;10.10;99.90
32446;DHT22;18899;50.748;7.102;2023-12-22T09:25:35;10.10;99.90
32446;DHT22;18899;50.748;7.102;2023-12-22T09:28:00;10.20;99.90
32446;DHT22;18899;50.748;7.102;2023-12-22T09:30:26;10.10;99.90
32446;DHT22;18899;50.748;7.102;2023-12-22T09:32:51;10.20;99.90
32446;DHT22;18899;50.748;7.102;2023-12-22T09:35:17;10.20;99.90
32446;DHT22;18899;50.748;7.102;2023-12-22T09:37:43;10.20;99.90
32446;DHT22;18899;50.748;7.102;2023-12-22T09:40:09;10.20;99.90
32446;DHT22;18899;50.748;7.102;2023-12-22T09:42:38;10.30;99.90
32446;DHT22;18899;50.748;7.102;2023-12-22T09:45:08;10.40;99.90
32446;DHT22;18899;50.748;7.102;2023-12-22T09:47:36;10.40;99.90
32446;DHT22;18899;50.748;7.102;2023-12-22T09:50:02;10.40;99.90
32446;DHT22;18899;50.748;7.102;2023-12-22T09:52:29;10.30;99.90
32446;DHT22;18899;50.748;7.102;2023-12-22T09:54:57;10.30;99.90
32446;DHT22;18899;50.748;7.102;2023-12-22T09:57:24;10.30;99.90
32446;DHT22;18899;50.748;7.102;2023-12-22T09:59:51;10.40;99.90
32446;DHT22;18899;50.748;7.102;2023-12-22T10:02:17;10.50;99.90
32446;DHT22;18899;50.748;7.102;2023-12-22T10:04:43;10.40;99.90
32446;DHT22;18899;50.748;7.102;2023-12-22T10:07:09;10.40;99.90
32446;DHT22;18899;50.748;7.102;2023-12-22T10:09:39;10.40;99.90
32446;DHT22;18899;50.748;7.102;2023-12-22T10:12:06;10.40;99.90
32446;DHT22;18899;50.748;7.102;2023-12-22T10:14:35;10.40;99.90
32446;DHT22;18899;50.748;7.102;2023-12-22T10:17:02;10.60;99.90
32446;DHT22;18899;50.748;7.102;2023-12-22T10:19:28;10.60;99.90
32446;DHT22;18899;50.748;7.102;2023-12-22T10:21:53;10.60;99.90
32446;DHT22;18899;50.748;7.102;2023-12-22T10:24:38;10.60;99.90
32446;DHT22;18899;50.748;7.102;2023-12-22T10:27:13;10.60;99.90
32446;DHT22;18899;50.748;7.102;2023-12-22T10:29:39;10.70;99.90
32446;DHT22;18899;50.748;7.102;2023-12-22T10:32:05;10.70;99.90
32446;DHT22;18899;50.748;7.102;2023-12-22T10:34:31;10.70;99.90
32446;DHT22;18899;50.748;7.102;2023-12-22T10:36:59;10.60;99.90
32446;DHT22;18899;50.748;7.102;2023-12-22T10:39:31;10.50;99.90
32446;DHT22;18899;50.748;7.102;2023-12-22T10:41:58;10.50;99.90
32446;DHT22;18899;50.748;7.102;2023-12-22T10:44:27;10.50;99.90
32446;DHT22;18899;50.748;7.102;2023-12-22T10:46:54;10.40;99.90
32446;DHT22;18899;50.748;7.102;2023-12-22T10:49:21;10.40;99.90
32446;DHT22;18899;50.748;7.102;2023-12-22T10:51:46;10.40;99.90
32446;DHT22;18899;50.748;7.102;2023-12-22T10:54:12;10.40;99.90
32446;DHT22;18899;50.748;7.102;2023-12-22T10:56:39;10.50;99.90
32446;DHT22;18899;50.748;7.102;2023-12-22T10:59:04;10.50;99.90
32446;DHT22;18899;50.748;7.102;2023-12-22T11:01:31;10.40;99.90
32446;DHT22;18899;50.748;7.102;2023-12-22T11:04:05;10.40;99.90
32446;DHT22;18899;50.748;7.102;2023-12-22T11:06:34;10.30;99.90
32446;DHT22;18899;50.748;7.102;2023-12-22T11:09:06;10.20;99.90
32446;DHT22;18899;50.748;7.102;2023-12-22T11:11:33;10.00;99.90
32446;DHT22;18899;50.748;7.102;2023-12-22T11:14:00;10.00;99.90
32446;DHT22;18899;50.748;7.102;2023-12-22T11:16:31;10.00;99.90
32446;DHT22;18899;50.748;7.102;2023-12-22T11:19:00;10.00;99.90
32446;DHT22;18899;50.748;7.102;2023-12-22T11:21:26;10.10;99.90
32446;DHT22;18899;50.748;7.102;2023-12-22T11:23:53;9.90;99.90
32446;DHT22;18899;50.748;7.102;2023-12-22T11:26:20;10.00;99.90
32446;DHT22;18899;50.748;7.102;2023-12-22T11:28:47;10.20;99.90
32446;DHT22;18899;50.748;7.102;2023-12-22T11:31:13;10.20;99.90
32446;DHT22;18899;50.748;7.102;2023-12-22T11:33:46;10.40;99.90
32446;DHT22;18899;50.748;7.102;2023-12-22T11:36:13;10.40;99.90
32446;DHT22;18899;50.748;7.102;2023-12-22T11:38:44;10.40;99.90
32446;DHT22;18899;50.748;7.102;2023-12-22T11:41:13;10.50;99.90
32446;DHT22;18899;50.748;7.102;2023-12-22T11:43:40;10.60;99.90
32446;DHT22;18899;50.748;7.102;2023-12-22T11:46:06;10.70;99.90
32446;DHT22;18899;50.748;7.102;2023-12-22T11:48:32;10.70;99.90
32446;DHT22;18899;50.748;7.102;2023-12-22T11:50:58;10.80;99.90
32446;DHT22;18899;50.748;7.102;2023-12-22T11:53:25;10.80;99.90
32446;DHT22;18899;50.748;7.102;2023-12-22T11:56:07;10.90;99.90
32446;DHT22;18899;50.748;7.102;2023-12-22T11:58:46;10.90;99.90
32446;DHT22;18899;50.748;7.102;2023-12-22T12:01:18;11.00;99.90
32446;DHT22;18899;50.748;7.102;2023-12-22T12:03:56;10.90;99.90
32446;DHT22;18899;50.748;7.102;2023-12-22T12:08:50;10.80;99.90
32446;DHT22;18899;50.748;7.102;2023-12-22T12:11:16;10.90;99.90
32446;DHT22;18899;50.748;7.102;2023-12-22T12:13:44;11.00;99.90
32446;DHT22;18899;50.748;7.102;2023-12-22T12:16:14;11.00;99.90
32446;DHT22;18899;50.748;7.102;2023-12-22T12:18:40;11.00;99.90
32446;DHT22;18899;50.748;7.102;2023-12-22T12:21:07;11.10;99.90
32446;DHT22;18899;50.748;7.102;2023-12-22T12:23:33;11.30;99.90
32446;DHT22;18899;50.748;7.102;2023-12-22T12:25:59;11.40;99.90
32446;DHT22;18899;50.748;7.102;2023-12-22T12:28:29;11.40;99.90
32446;DHT22;18899;50.748;7.102;2023-12-22T12:31:03;11.40;99.90
32446;DHT22;18899;50.748;7.102;2023-12-22T12:33:29;11.50;99.90
32446;DHT22;18899;50.748;7.102;2023-12-22T12:36:02;11.60;99.90
32446;DHT22;18899;50.748;7.102;2023-12-22T12:38:48;11.70;99.90
32446;DHT22;18899;50.748;7.102;2023-12-22T12:41:32;11.50;99.90
32446;DHT22;18899;50.748;7.102;2023-12-22T12:44:00;11.50;99.90
32446;DHT22;18899;50.748;7.102;2023-12-22T12:46:35;11.50;99.90
32446;DHT22;18899;50.748;7.102;2023-12-22T12:49:05;11.50;99.90
32446;DHT22;18899;50.748;7.102;2023-12-22T12:51:36;11.60;99.90
32446;DHT22;18899;50.748;7.102;2023-12-22T12:54:03;11.60;99.90
32446;DHT22;18899;50.748;7.102;2023-12-22T12:56:28;11.60;99.90
32446;DHT22;18899;50.748;7.102;2023-12-22T12:58:54;11.60;99.90
32446;DHT22;18899;50.748;7.102;2023-12-22T13:01:19;11.70;99.90
32446;DHT22;18899;50.748;7.102;2023-12-22T13:03:52;11.70;99.90
32446;DHT22;18899;50.748;7.102;2023-12-22T13:06:18;11.70;99.90
32446;DHT22;18899;50.748;7.102;2023-12-22T13:08:48;11.60;99.90
32446;DHT22;18899;50.748;7.102;2023-12-22T13:11:14;11.50;99.90
32446;DHT22;18899;50.748;7.102;2023-12-22T13:13:42;11.50;99.90
32446;DHT22;18899;50.748;7.102;2023-12-22T13:16:09;11.40;99.90
32446;DHT22;18899;50.748;7.102;2023-12-22T13:18:35;11.30;99.90
32446;DHT22;18899;50.748;7.102;2023-12-22T13:21:01;11.20;99.90
32446;DHT22;18899;50.748;7.102;2023-12-22T13:23:26;11.10;99.90
32446;DHT22;18899;50.748;7.102;2023-12-22T13:25:52;10.80;99.90
32446;DHT22;18899;50.748;7.102;2023-12-22T13:28:28;10.60;99.90
32446;DHT22;18899;50.748;7.102;2023-12-22T13:30:54;10.50;99.90
32446;DHT22;18899;50.748;7.102;2023-12-22T13:33:20;10.40;99.90
32446;DHT22;18899;50.748;7.102;2023-12-22T13:35:46;10.40;99.90
32446;DHT22;18899;50.748;7.102;2023-12-22T13:38:12;10.50;99.90
32446;DHT22;18899;50.748;7.102;2023-12-22T13:40:38;10.40;99.90
32446;DHT22;18899;50.748;7.102;2023-12-22T13:43:04;10.40;99.90
32446;DHT22;18899;50.748;7.102;2023-12-22T13:45:31;10.40;99.90
32446;DHT22;18899;50.748;7.102;2023-12-22T13:47:57;10.40;99.90
32446;DHT22;18899;50.748;7.102;2023-12-22T13:50:23;10.40;99.90
32446;DHT22;18899;50.748;7.102;2023-12-22T13:52:51;10.40;99.90
32446;DHT22;18899;50.748;7.102;2023-12-22T13:55:19;10.50;99.90
32446;DHT22;18899;50.748;7.102;2023-12-22T13:57:45;10.50;99.90
32446;DHT22;18899;50.748;7.102;2023-12-22T14:02:45;10.50;99.90
32446;DHT22;18899;50.748;7.102;2023-12-22T14:05:11;10.50;99.90
32446;DHT22;18899;50.748;7.102;2023-12-22T14:07:37;10.40;99.90
32446;DHT22;18899;50.748;7.102;2023-12-22T14:10:09;10.40;99.90
32446;DHT22;18899;50.748;7.102;2023-12-22T14:12:35;10.40;99.90
32446;DHT22;18899;50.748;7.102;2023-12-22T14:15:05;10.50;99.90
32446;DHT22;18899;50.748;7.102;2023-12-22T14:17:31;10.50;99.90
32446;DHT22;18899;50.748;7.102;2023-12-22T14:19:57;10.50;99.90
32446;DHT22;18899;50.748;7.102;2023-12-22T14:22:22;10.60;99.90
32446;DHT22;18899;50.748;7.102;2023-12-22T14:24:48;10.60;99.90
32446;DHT22;18899;50.748;7.102;2023-12-22T14:27:13;10.50;99.90
32446;DHT22;18899;50.748;7.102;2023-12-22T14:29:39;10.60;99.90
32446;DHT22;18899;50.748;7.102;2023-12-22T14:32:06;10.60;99.90
32446;DHT22;18899;50.748;7.102;2023-12-22T14:34:34;10.70;99.90
32446;DHT22;18899;50.748;7.102;2023-12-22T14:36:59;10.70;99.90
32446;DHT22;18899;50.748;7.102;2023-12-22T14:39:26;10.60;99.90
32446;DHT22;18899;50.748;7.102;2023-12-22T14:41:52;10.60;99.90
32446;DHT22;18899;50.748;7.102;2023-12-22T14:44:17;10.60;99.90
32446;DHT22;18899;50.748;7.102;2023-12-22T14:46:43;10.50;99.90
32446;DHT22;18899;50.748;7.102;2023-12-22T14:49:10;10.60;99.90
32446;DHT22;18899;50.748;7.102;2023-12-22T14:51:37;10.40;99.90
32446;DHT22;18899;50.748;7.102;2023-12-22T14:54:06;10.50;99.90
32446;DHT22;18899;50.748;7.102;2023-12-22T14:56:33;10.40;99.90
32446;DHT22;18899;50.748;7.102;2023-12-22T14:58:59;10.50;99.90
32446;DHT22;18899;50.748;7.102;2023-12-22T15:01:25;10.50;99.90
32446;DHT22;18899;50.748;7.102;2023-12-22T15:03:51;10.40;99.90
32446;DHT22;18899;50.748;7.102;2023-12-22T15:06:16;10.50;99.90
32446;DHT22;18899;50.748;7.102;2023-12-22T15:08:42;10.50;99.90
32446;DHT22;18899;50.748;7.102;2023-12-22T15:11:07;10.40;99.90
32446;DHT22;18899;50.748;7.102;2023-12-22T15:13:34;10.40;99.90
32446;DHT22;18899;50.748;7.102;2023-12-22T15:16:07;10.40;99.90
32446;DHT22;18899;50.748;7.102;2023-12-22T15:18:32;10.40;99.90
32446;DHT22;18899;50.748;7.102;2023-12-22T15:20:58;10.40;99.90
32446;DHT22;18899;50.748;7.102;2023-12-22T15:23:24;10.40;99.90
32446;DHT22;18899;50.748;7.102;2023-12-22T15:25:51;10.50;99.90
32446;DHT22;18899;50.748;7.102;2023-12-22T15:28:16;10.50;99.90
32446;DHT22;18899;50.748;7.102;2023-12-22T15:30:42;10.60;99.90
32446;DHT22;18899;50.748;7.102;2023-12-22T15:33:07;10.60;99.90
32446;DHT22;18899;50.748;7.102;2023-12-22T15:35:33;10.60;99.90
32446;DHT22;18899;50.748;7.102;2023-12-22T15:37:59;10.60;99.90
32446;DHT22;18899;50.748;7.102;2023-12-22T15:40:24;10.50;99.90
32446;DHT22;18899;50.748;7.102;2023-12-22T15:42:50;10.40;99.90
32446;DHT22;18899;50.748;7.102;2023-12-22T15:45:16;10.40;99.90
32446;DHT22;18899;50.748;7.102;2023-12-22T15:47:41;10.30;99.90